Latest Coastal Weather Observations for Maria Island

IDT60701

Issued at 5:42 am EDT Tuesday 7 February 2023 (issued every 10 minutes, with the page automatically refreshed every 10 minutes)

About coastal observations | Map of coastal stations | Coastal observations for TAS | Marine services | Other Formats
Station Details ID: 092124 Name: MARIA ISLAND (POINT LESUEUR) Lat: -42.66 Lon: 148.02 Height: 28.0 m
Data from the previous 72 hours. | See also: Recent months at Maria Island
Date/Time
EDT
Wind Sea
Height
m
Swell Vis
km
Cloud Weather Temp
°C
Press
MSL
hPa
Rain since
9am
mm
Dir  Spd
kts
Gust
kts
Height
m
Period
s
Dir
07/05:30am WNW 4 6 - - - - - - - 13.1 1014.7 0.0
07/05:00am W 8 9 - - - - - - - 13.1 1014.5 0.0
07/04:30am NW 7 9 - - - - - - - 13.1 1014.3 0.0
07/04:00am W 8 11 - - - - - - - 13.7 1014.5 0.0
07/03:30am WSW 8 10 - - - - - - - 14.0 1014.6 0.0
07/03:00am W 8 11 - - - - - - - 14.3 1014.6 0.0
07/02:30am W 11 15 - - - - - - - 14.5 1014.4 0.0
07/02:00am W 10 12 - - - - - - - 14.4 1014.5 0.0
07/01:30am W 11 14 - - - - - - - 14.9 1014.5 0.0
07/01:00am WSW 13 15 - - - - - - - 15.4 1014.6 0.0
07/12:30am WSW 18 21 - - - - - - - 15.6 1014.5 0.0
07/12:00am W 10 17 - - - - - - - 15.6 1014.5 0.0
 
Date/Time
EDT
Wind Sea
Height
m
Swell Vis
km
Cloud Weather Temp
°C
Press
MSL
hPa
Rain since
9am
mm
Dir  Spd
kts
Gust
kts
Height
m
Period
s
Dir
06/11:30pm WSW 9 11 - - - - - - - 15.8 1014.5 0.0
06/11:00pm WSW 9 15 - - - - - - - 16.4 1014.3 0.0
06/10:30pm W 14 18 - - - - - - - 16.5 1014.2 0.0
06/10:00pm W 14 18 - - - - - - - 16.8 1014.0 0.0
06/09:50pm W 12 19 - - - - - - - 16.8 1013.8 0.0
06/09:30pm NNW 7 9 - - - - - - - 16.4 1013.6 0.0
06/09:00pm NNW 6 7 - - - - - - - 16.2 1013.2 0.0
06/08:30pm ESE 1 3 - - - - - - - 16.5 1013.0 0.0
06/08:00pm ESE 4 6 - - - - - - - 17.1 1012.8 0.0
06/07:30pm ESE 6 8 - - - - - - - 17.8 1012.5 0.0
06/07:00pm ESE 12 15 - - - - - - - 17.7 1012.3 0.0
06/06:30pm E 9 13 - - - - - - - 18.4 1012.0 0.0
06/06:00pm E 9 11 - - - - - - - 19.3 1011.9 0.0
06/05:30pm E 10 12 - - - - - - - 20.0 1011.6 0.0
06/05:00pm ESE 8 14 - - - - - - - 19.4 1011.7 0.0
06/04:30pm ESE 10 16 - - - - - - - 19.9 1011.8 0.0
06/04:00pm E 12 19 - - - - - - - 18.7 1012.1 0.0
06/03:30pm ESE 10 16 - - - - - - - 20.1 1012.1 0.0
06/03:00pm SSW 10 21 - - - - - - - 20.7 1012.1 0.0
06/02:30pm W 13 18 - - - - - - - 22.0 1012.1 0.0
06/02:00pm WSW 18 25 - - - - - - - 22.7 1012.0 0.0
06/01:30pm W 20 26 - - - - - - - 22.7 1012.2 0.0
06/01:14pm WSW 22 31 - - - - - - - 21.9 1012.0 0.0
06/01:00pm WSW 17 24 - - - - - - - 21.6 1012.4 0.0
06/12:30pm W 13 19 - - - - - - - 21.9 1012.4 0.0
06/12:00pm WSW 11 18 - - - - - - - 20.9 1012.8 0.0
06/11:30am W 13 21 - - - - - - - 20.2 1012.9 0.0
06/11:00am WSW 17 23 - - - - - - - 19.9 1013.0 0.0
06/10:30am WNW 6 16 - - - - - - - 18.6 1013.2 0.0
06/10:00am N 8 12 - - - - - - - 18.1 1013.3 0.0
06/09:30am NNW 6 9 - - - - - - - 17.5 1013.3 0.0
06/09:00am N 9 12 - - - - - - - 16.7 1013.3 0.0
06/08:30am N 7 10 - - - - - - - 16.1 1013.2 0.0
06/08:00am N 6 9 - - - - - - - 15.0 1013.4 0.0
06/07:30am N 9 10 - - - - - - - 14.7 1013.2 0.0
06/07:00am N 9 10 - - - - - - - 14.5 1012.7 0.0
06/06:30am NNW 6 8 - - - - - - - 14.6 1012.2 0.0
06/06:00am WNW 8 11 - - - - - - - 14.3 1012.4 0.0
06/05:30am W 6 9 - - - - - - - 14.2 1012.5 0.0
06/05:00am WNW 4 7 - - - - - - - 13.9 1012.4 0.0
06/04:30am W 8 11 - - - - - - - 14.3 1012.1 0.0
06/04:00am WNW 4 7 - - - - - - - 14.7 1012.0 0.0
06/03:30am NW 1 3 - - - - - - - 14.7 1012.3 0.0
06/03:00am W 3 5 - - - - - - - 14.5 1012.3 0.0
06/02:30am WSW 5 7 - - - - - - - 14.4 1012.4 0.0
06/02:00am WNW 7 8 - - - - - - - 14.2 1012.5 0.0
06/01:30am W 6 7 - - - - - - - 14.4 1012.7 0.0
06/01:00am WNW 5 6 - - - - - - - 14.5 1012.7 0.0
06/12:30am NNW 8 10 - - - - - - - 15.4 1012.7 0.0
06/12:00am N 9 11 - - - - - - - 16.1 1012.9 0.0
 
Date/Time
EDT
Wind Sea
Height
m
Swell Vis
km
Cloud Weather Temp
°C
Press
MSL
hPa
Rain since
9am
mm
Dir  Spd
kts
Gust
kts
Height
m
Period
s
Dir
05/11:30pm N 10 12 - - - - - - - 16.0 1012.7 0.0
05/11:00pm N 10 12 - - - - - - - 15.9 1012.9 0.0
05/10:30pm NNE 8 11 - - - - - - - 15.9 1013.2 0.0
05/10:00pm N 8 10 - - - - - - - 15.9 1013.1 0.0
05/09:30pm N 7 9 - - - - - - - 15.9 1012.8 0.0
05/09:00pm N 7 9 - - - - - - - 16.1 1012.5 0.0
05/08:30pm N 8 10 - - - - - - - 16.5 1012.3 0.0
05/08:00pm N 9 11 - - - - - - - 16.9 1012.1 0.0
05/07:30pm NW 3 7 - - - - - - - 17.6 1012.0 0.0
05/07:00pm ESE 9 12 - - - - - - - 17.4 1011.8 0.0
05/06:30pm ESE 8 11 - - - - - - - 17.6 1011.6 0.0
05/06:00pm E 8 10 - - - - - - - 17.9 1011.6 0.0
05/05:30pm E 9 11 - - - - - - - 18.2 1011.4 0.0
05/05:00pm E 11 13 - - - - - - - 18.1 1011.0 0.0
05/04:30pm E 12 15 - - - - - - - 18.6 1011.1 0.0
05/04:00pm E 15 18 - - - - - - - 18.9 1011.0 0.0
05/03:30pm E 14 18 - - - - - - - 18.8 1010.7 0.0
05/03:00pm ESE 10 12 - - - - - - - 20.4 1010.7 0.0
05/02:30pm SSE 4 7 - - - - - - - 21.2 1010.8 0.0
05/02:00pm S 13 14 - - - - - - - 20.0 1010.7 0.0
05/01:30pm S 12 15 - - - - - - - 19.5 1010.9 0.0
05/01:00pm S 13 15 - - - - - - - 19.1 1010.8 0.0
05/12:30pm S 12 15 - - - - - - - 19.1 1010.9 0.0
05/12:00pm S 12 15 - - - - - - - 18.7 1010.7 0.0
05/11:30am S 12 15 - - - - - - - 18.3 1010.6 0.0
05/11:00am SSW 14 17 - - - - - - - 18.1 1010.5 0.0
05/10:30am SSW 13 15 - - - - - - - 17.7 1010.3 0.0
05/10:00am SSW 17 23 - - - - - - - 17.0 1010.2 0.0
05/09:30am SW 17 21 - - - - - - - 16.2 1009.9 0.0
05/09:00am SW 20 24 - - - - - - - 15.7 1009.4 11.0
05/08:30am SW 15 23 - - - - - - - 15.3 1009.1 11.0
05/08:00am SW 16 24 - - - - - - - 14.8 1008.9 11.0
05/07:30am SW 18 23 - - - - - - - 14.4 1008.4 11.0
05/07:00am SW 16 21 - - - - - - - 14.4 1008.0 11.0
05/06:30am SW 19 28 - - - - - - - 14.3 1007.2 11.0
05/06:00am SW 16 23 - - - - - - - 14.1 1007.0 11.0
05/05:30am SW 18 22 - - - - - - - 14.1 1006.5 11.0
05/05:00am WSW 18 23 - - - - - - - 13.6 1006.0 11.0
05/04:30am SW 17 22 - - - - - - - 13.9 1005.4 11.0
05/04:00am SW 22 27 - - - - - - - 13.3 1005.0 11.0
05/03:30am SW 23 29 - - - - - - - 14.2 1004.8 11.0
05/03:00am SW 29 37 - - - - - - Recent precip. 14.1 1004.5 11.0
05/02:30am SW 30 35 - - - - - - - 14.4 1003.9 11.0
05/02:00am SW 31 36 - - - - - - - 13.9 1003.6 10.8
05/01:30am SW 27 34 - - - - - - - 14.3 1003.3 10.8
05/01:00am SW 29 38 - - - - - - - 14.8 1002.6 10.8
05/12:30am SW 26 36 - - - - - - - 14.9 1002.1 10.8
05/12:20am SW 23 34 - - - - - - - 14.9 1002.2 10.8
05/12:00am SW 23 32 - - - - - - - 14.6 1001.9 10.8
 
Date/Time
EDT
Wind Sea
Height
m
Swell Vis
km
Cloud Weather Temp
°C
Press
MSL
hPa
Rain since
9am
mm
Dir  Spd
kts
Gust
kts
Height
m
Period
s
Dir
04/11:46pm SW 21 32 - - - - - - - 14.7 1001.7 10.8
04/11:30pm SW 25 33 - - - - - - - 14.7 1001.6 10.8
04/11:00pm SW 22 27 - - - - - - - 14.7 1001.4 10.8
04/10:42pm WSW 19 29 - - - - - - - 14.6 1001.4 10.8
04/10:30pm SW 22 29 - - - - - - - 14.4 1001.3 10.8
04/10:00pm SW 19 24 - - - - - - - 14.1 1001.2 10.8
04/09:30pm SW 20 27 - - - - - - - 14.0 1000.8 10.8
04/09:06pm SW 24 34 - - - - - - - 13.9 1000.4 10.8
04/09:00pm SW 27 34 - - - - - - Recent precip. 13.9 1000.2 10.8
04/08:30pm SW 25 34 - - - - - - - 13.7 999.8 10.8
04/08:00pm SW 29 37 - - - - - - - 14.8 999.1 10.6
04/07:30pm SW 30 37 - - - - - - - 14.8 998.5 10.6
04/07:11pm SW 30 40 - - - - - - - 14.7 998.2 10.6
04/07:00pm SW 31 37 - - - - - - - 14.2 998.0 10.6
04/06:30pm SW 33 41 - - - - - - - 13.6 997.3 10.6
04/06:04pm SW 27 37 - - - - - - - 14.8 997.0 10.2
04/06:00pm SW 26 31 - - - - - - - 14.8 997.1 10.2
04/05:30pm SW 29 35 - - - - - - - 15.8 996.6 10.2
04/05:00pm SW 28 38 - - - - - - - 15.9 996.2 10.2
04/04:30pm SW 27 34 - - - - - - - 16.5 995.9 10.0
04/04:00pm SW 27 34 - - - - - - - 15.5 995.6 10.0
04/03:31pm SSW 22 32 - - - - - - - 14.3 995.4 9.8
04/03:30pm SSW 21 31 - - - - - - - 14.4 995.4 9.8
04/03:00pm SSW 22 26 - - - - - - Rain 14.3 995.4 8.4
04/02:30pm SW 20 25 - - - - - - - 15.2 995.2 7.2
04/02:00pm SW 15 19 - - - - - - - 15.1 995.2 7.2
04/01:30pm SW 16 19 - - - - - - - 15.1 995.0 5.8
04/01:00pm SW 14 19 - - - - - - - 14.7 995.0 5.6
04/12:30pm NNW 6 8 - - - - - - - 14.2 995.0 5.6
04/12:00pm N 8 10 - - - - - - Recent precip. 13.7 994.9 5.4
04/11:30am NNW 8 9 - - - - - - - 13.4 995.0 5.4
04/11:00am NNW 8 10 - - - - - - - 12.8 995.0 4.8
04/10:30am NNW 6 8 - - - - - - - 12.8 995.1 3.6
04/10:00am N 8 10 - - - - - - - 12.8 995.0 3.0
04/09:30am NW 5 7 - - - - - - - 12.2 995.1 2.0
04/09:00am NNW 7 10 - - - - - - Recent precip. 12.5 995.0 1.2
04/08:30am NNW 10 12 - - - - - - - 12.4 994.7 1.0
04/08:00am NNW 10 13 - - - - - - - 13.3 994.3 0.0
04/07:30am NNW 10 12 - - - - - - - 13.7 993.9 0.0
04/07:00am NNW 13 17 - - - - - - - 13.8 993.3 0.0
04/06:30am N 19 21 - - - - - - - 13.6 992.4 0.0
04/06:00am N 16 19 - - - - - - - 13.6 992.6 0.0

Other formats

Comma delimited format used in spreadsheet applications
http://www.bom.gov.au/fwo/IDT60701/IDT60701.95988.axf

JavaScript Object Notation format (JSON) in row-major order
http://www.bom.gov.au/fwo/IDT60701/IDT60701.95988.json

Data quality

Most of these data are generated automatically and are frequently updated. Quality checks on data are not normally performed. It is possible for incorrect values to appear. Refer to information at About Latest Weather Observations and please check the disclaimer before using these data.